Time;durP1;ratioP1;P1;durP2;ratioP2;P2;SDS_P1;SDS_P2;PMS_P1;PMS_P2;Temp;Humidity;BMP_temperature;BMP_pressure;BME280_temperature;BME280_humidity;BME280_pressure;Samples;Min_cycle;Max_cycle;Signal;HPM_P1;HPM_P2
2021/12/20 00:01:28;;;;;;;3.22;2.00;;;;;;;0.84;80.78;98372.98;1747995;80;21000;-77
2021/12/20 00:03:55;;;;;;;3.40;2.00;;;;;;;0.85;80.71;98379.02;1750612;80;21079;-77
2021/12/20 00:06:21;;;;;;;3.50;1.90;;;;;;;0.84;80.71;98381.25;1754490;80;21060;-77
2021/12/20 00:08:48;;;;;;;3.33;1.72;;;;;;;0.84;80.73;98372.98;1745483;81;20964;-76
2021/12/20 00:11:15;;;;;;;3.80;1.72;;;;;;;0.83;80.71;98370.50;1757204;80;21904;-77
2021/12/20 00:13:41;;;;;;;3.62;2.10;;;;;;;0.83;80.73;98369.20;1756547;80;21000;-76
2021/12/20 00:16:08;;;;;;;3.10;1.90;;;;;;;0.83;80.73;98369.20;1745455;80;21004;-75
2021/12/20 00:18:36;;;;;;;2.70;1.82;;;;;;;0.85;80.77;98374.64;1752503;80;21519;-73
2021/12/20 00:21:02;;;;;;;3.22;1.90;;;;;;;0.85;80.76;98377.23;1745358;80;21107;-76
2021/12/20 00:23:29;;;;;;;5.08;2.60;;;;;;;0.85;80.72;98373.81;1762637;80;21824;-76
2021/12/20 00:25:56;;;;;;;4.42;3.00;;;;;;;0.84;80.71;98376.05;1760981;80;21066;-76
2021/12/20 00:28:23;;;;;;;5.30;3.75;;;;;;;0.83;80.73;98375.70;1753660;80;21074;-76
2021/12/20 00:30:50;;;;;;;4.80;3.50;;;;;;;0.82;80.74;98380.54;1759587;80;21680;-75
2021/12/20 00:33:17;;;;;;;3.17;2.08;;;;;;;0.81;80.74;98388.81;1765199;80;21058;-75
2021/12/20 00:35:44;;;;;;;2.92;2.00;;;;;;;0.80;80.72;98383.72;1745620;80;21837;-75
2021/12/20 00:40:56;;;;;;;3.87;2.15;;;;;;;0.81;80.69;98398.38;1747754;80;21023;-76
2021/12/20 00:43:22;;;;;;;2.60;1.42;;;;;;;0.80;80.67;98397.55;1754235;80;21110;-76
2021/12/20 00:45:48;;;;;;;3.00;1.90;;;;;;;0.81;80.65;98400.97;1759146;80;21319;-75
2021/12/20 00:48:15;;;;;;;3.00;1.80;;;;;;;0.79;80.64;98401.55;1750868;80;21746;-75
2021/12/20 00:50:42;;;;;;;2.92;1.77;;;;;;;0.80;80.62;98405.34;1763087;80;20957;-75
2021/12/20 00:53:09;;;;;;;2.65;1.60;;;;;;;0.80;80.61;98406.64;1766882;79;20996;-76
2021/12/20 00:55:36;;;;;;;2.55;1.72;;;;;;;0.81;80.57;98407.00;1772564;79;21372;-76
2021/12/20 00:58:03;;;;;;;3.35;1.40;;;;;;;0.83;80.53;98408.19;1747285;81;21085;-76
2021/12/20 01:00:34;;;;;;;2.42;1.50;;;;;;;0.83;80.48;98412.91;1701275;82;21839;-77
2021/12/20 01:03:00;;;;;;;2.75;1.60;;;;;;;0.82;80.38;98415.63;1736716;81;20987;-77
2021/12/20 01:05:27;;;;;;;2.62;1.45;;;;;;;0.80;80.32;98418.34;1744395;81;21376;-76
2021/12/20 01:07:57;;;;;;;2.62;1.50;;;;;;;0.78;80.26;98420.69;1694092;82;21081;-77
2021/12/20 01:10:25;;;;;;;2.40;1.40;;;;;;;0.78;80.21;98420.69;1746909;80;20988;-76
2021/12/20 01:12:53;;;;;;;1.92;1.27;;;;;;;0.75;80.15;98418.28;1738274;81;22486;-77
2021/12/20 01:15:32;;;;;;;2.65;1.25;;;;;;;0.74;80.13;98423.13;1704116;82;20950;-76
2021/12/20 01:17:58;;;;;;;1.90;1.40;;;;;;;0.71;80.07;98423.34;1724384;81;21044;-76
2021/12/20 01:20:24;;;;;;;2.52;1.45;;;;;;;0.68;80.01;98428.77;1728831;81;21052;-74
2021/12/20 01:22:51;;;;;;;3.10;1.20;;;;;;;0.65;79.98;98429.80;1729615;81;21419;-75
2021/12/20 01:25:19;;;;;;;1.67;1.12;;;;;;;0.62;79.92;98431.78;1728322;81;22210;-74
2021/12/20 01:27:46;;;;;;;2.62;1.20;;;;;;;0.59;79.94;98426.81;1726872;81;21474;-74
2021/12/20 01:30:15;;;;;;;1.80;1.12;;;;;;;0.57;79.92;98435.52;1727454;81;21043;-74
2021/12/20 01:32:42;;;;;;;2.10;1.27;;;;;;;0.54;79.87;98431.84;1726791;81;21069;-74
2021/12/20 01:35:09;;;;;;;2.12;1.20;;;;;;;0.54;79.84;98436.20;1724729;81;21067;-73
2021/12/20 01:37:35;;;;;;;2.37;1.20;;;;;;;0.52;79.81;98434.19;1729153;81;21787;-73
2021/12/20 01:40:04;;;;;;;3.67;1.15;;;;;;;0.51;79.79;98439.03;1726376;81;21115;-74
2021/12/20 01:42:33;;;;;;;1.62;0.90;;;;;;;0.50;79.75;98443.86;1733470;81;20966;-73
2021/12/20 01:44:59;;;;;;;2.77;1.30;;;;;;;0.48;79.73;98437.48;1722601;81;20969;-73
2021/12/20 01:47:30;;;;;;;1.52;0.88;;;;;;;0.46;79.66;98434.60;1715806;81;21016;-73
2021/12/20 01:50:06;;;;;;;2.58;1.10;;;;;;;0.45;79.67;98431.65;1745429;81;22626;-73
2021/12/20 01:52:39;;;;;;;1.27;0.90;;;;;;;0.43;79.62;98434.36;1701186;82;20994;-74
2021/12/20 01:54:59;;;;;;;2.87;0.93;;;;;;;0.41;79.60;98433.64;1719274;82;21023;-73
2021/12/20 01:57:27;;;;;;;1.40;0.95;;;;;;;0.39;79.56;98430.80;1720364;81;21480;-74
2021/12/20 01:59:53;;;;;;;2.27;1.12;;;;;;;0.36;79.54;98427.91;1721333;81;21482;-73
2021/12/20 02:02:20;;;;;;;1.90;1.05;;;;;;;0.34;79.57;98428.49;1718253;82;22851;-73
2021/12/20 02:04:49;;;;;;;1.65;1.00;;;;;;;0.33;79.57;98437.22;1724754;82;20960;-74
2021/12/20 02:07:33;;;;;;;2.83;1.15;;;;;;;0.33;79.55;98438.98;1721165;81;21510;-74
2021/12/20 02:09:43;;;;;;;1.80;1.10;;;;;;;0.27;79.53;98435.86;1726957;82;21040;-74
2021/12/20 02:12:09;;;;;;;1.50;0.82;;;;;;;0.26;79.59;98445.06;1761592;79;20989;-75
2021/12/20 02:14:36;;;;;;;1.27;1.00;;;;;;;0.25;79.63;98439.51;1770787;79;21791;-76
2021/12/20 02:17:03;;;;;;;3.92;1.10;;;;;;;0.24;79.70;98450.83;1740722;80;21551;-75
2021/12/20 02:19:29;;;;;;;1.92;1.00;;;;;;;0.23;79.74;98442.68;1767644;79;20964;-74
2021/12/20 02:21:55;;;;;;;1.47;0.90;;;;;;;0.23;79.85;98451.30;1740631;81;21036;-76
2021/12/20 02:24:22;;;;;;;1.70;0.95;;;;;;;0.25;79.92;98451.19;1701600;82;21540;-75
2021/12/20 02:26:50;;;;;;;1.98;1.30;;;;;;;0.27;79.94;98455.80;1732507;81;22526;-74
2021/12/20 02:29:26;;;;;;;1.05;0.80;;;;;;;0.30;79.97;98456.92;1730231;81;20993;-75
2021/12/20 02:37:27;;;;;;;1.25;0.90;;;;;;;0.35;80.04;98451.39;1736866;81;21069;-74
2021/12/20 02:39:46;;;;;;;1.62;0.95;;;;;;;0.35;80.04;98452.69;1729325;81;22644;-74
2021/12/20 02:42:17;;;;;;;2.05;0.98;;;;;;;0.36;80.08;98452.58;1732149;81;21024;-74
2021/12/20 02:45:03;;;;;;;1.45;1.00;;;;;;;0.38;80.09;98459.80;1747907;80;20964;-74
2021/12/20 02:47:29;;;;;;;1.52;1.00;;;;;;;0.39;80.16;98462.78;1719270;81;21460;-74
2021/12/20 02:49:48;;;;;;;2.37;1.17;;;;;;;0.41;80.13;98463.50;1720706;81;20949;-74
2021/12/20 02:52:14;;;;;;;1.62;1.10;;;;;;;0.43;80.15;98464.69;1768970;79;22754;-74
2021/12/20 02:54:42;;;;;;;2.67;1.10;;;;;;;0.42;80.17;98465.16;1799616;78;20936;-74
2021/12/20 02:57:08;;;;;;;2.33;1.10;;;;;;;0.43;80.24;98462.09;1795343;78;20984;-74
2021/12/20 02:59:34;;;;;;;2.95;1.40;;;;;;;0.43;80.27;98472.48;1780099;79;21434;-74
2021/12/20 03:02:05;;;;;;;1.77;1.37;;;;;;;0.43;80.29;98473.78;1786020;80;20944;-74
2021/12/20 03:04:32;;;;;;;2.33;1.60;;;;;;;0.41;80.31;98479.09;1788617;79;21873;-74
2021/12/20 03:07:02;;;;;;;2.50;1.75;;;;;;;0.41;80.33;98484.75;1778422;79;20932;-75
2021/12/20 03:09:35;;;;;;;3.67;1.77;;;;;;;0.40;80.35;98484.39;1786269;79;20925;-75
2021/12/20 03:12:01;;;;;;;2.42;1.87;;;;;;;0.39;80.38;98480.96;1789633;79;21400;-74
2021/12/20 03:14:34;;;;;;;2.98;1.80;;;;;;;0.35;80.40;98483.38;1789408;79;21038;-74
2021/12/20 03:16:58;;;;;;;3.10;2.05;;;;;;;0.33;80.42;98489.63;1775996;78;21732;-75
2021/12/20 03:19:25;;;;;;;2.77;2.00;;;;;;;0.32;80.44;98487.50;1788012;78;21027;-75
2021/12/20 03:21:52;;;;;;;3.95;2.33;;;;;;;0.31;80.42;98484.55;1730924;81;20968;-75
2021/12/20 03:24:20;;;;;;;4.87;2.35;;;;;;;0.32;80.41;98484.07;1786272;79;20977;-75
2021/12/20 03:26:46;;;;;;;2.40;2.12;;;;;;;0.32;80.40;98482.77;1783397;78;21428;-74
2021/12/20 03:29:13;;;;;;;3.20;2.67;;;;;;;0.30;80.41;98493.27;1780053;79;21816;-74
2021/12/20 03:31:39;;;;;;;3.25;2.50;;;;;;;0.31;80.39;98491.50;1791785;79;20932;-75
2021/12/20 03:34:06;;;;;;;3.42;2.80;;;;;;;0.30;80.41;98491.97;1790810;79;20992;-74
2021/12/20 03:36:33;;;;;;;4.47;3.20;;;;;;;0.29;80.43;98491.61;1790444;78;21272;-75
2021/12/20 03:38:59;;;;;;;4.72;3.20;;;;;;;0.30;80.45;98493.73;1779352;79;20948;-75
2021/12/20 03:41:26;;;;;;;5.40;3.02;;;;;;;0.31;80.46;98490.20;1774350;80;22221;-74
2021/12/20 03:43:52;;;;;;;3.47;2.85;;;;;;;0.32;80.47;98486.67;1775926;80;20999;-75
2021/12/20 03:46:19;;;;;;;5.00;3.35;;;;;;;0.33;80.47;98496.12;1779573;80;21034;-74
2021/12/20 03:48:46;;;;;;;6.65;5.25;;;;;;;0.33;80.47;98494.35;1770730;80;21070;-73
2021/12/20 03:51:13;;;;;;;9.58;4.40;;;;;;;0.35;80.46;98496.38;1784615;79;20977;-74
2021/12/20 03:53:39;;;;;;;18.35;11.22;;;;;;;0.36;80.43;98499.33;1770703;79;21376;-74
2021/12/20 03:56:06;;;;;;;24.57;16.85;;;;;;;0.37;80.41;98498.39;1773599;79;21055;-74
2021/12/20 03:58:33;;;;;;;8.13;5.72;;;;;;;0.37;80.39;98503.58;1747125;81;21024;-74
2021/12/20 04:01:04;;;;;;;6.15;3.92;;;;;;;0.39;80.35;98503.03;1699228;83;21501;-74
2021/12/20 04:03:33;;;;;;;10.78;7.15;;;;;;;0.42;80.33;98514.98;1730448;81;21082;-73
2021/12/20 04:05:58;;;;;;;7.03;4.03;;;;;;;0.42;80.26;98513.67;1747550;80;21820;-74
2021/12/20 04:08:25;;;;;;;9.75;5.70;;;;;;;0.42;80.23;98514.98;1741004;81;20992;-74
2021/12/20 04:10:51;;;;;;;7.20;4.70;;;;;;;0.39;80.21;98512.13;1771149;79;20952;-73
2021/12/20 04:13:17;;;;;;;7.45;3.52;;;;;;;0.41;80.22;98519.34;1770130;79;20949;-76
2021/12/20 04:15:44;;;;;;;6.72;3.90;;;;;;;0.43;80.13;98515.34;1762612;79;21434;-75
2021/12/20 04:18:10;;;;;;;6.58;4.92;;;;;;;0.44;80.12;98522.19;1778219;79;22168;-73
2021/12/20 04:20:37;;;;;;;6.10;3.35;;;;;;;0.43;80.09;98521.36;1771389;79;21096;-73
2021/12/20 04:23:04;;;;;;;7.10;4.85;;;;;;;0.43;80.01;98521.83;1771208;79;21426;-74
2021/12/20 04:25:32;;;;;;;5.47;3.58;;;;;;;0.43;79.96;98524.42;1773221;79;20953;-75
2021/12/20 04:27:58;;;;;;;5.65;3.25;;;;;;;0.41;79.94;98527.59;1780801;79;21067;-75
2021/12/20 04:30:28;;;;;;;5.00;3.60;;;;;;;0.42;79.90;98527.48;1773312;79;22855;-75
2021/12/20 04:32:53;;;;;;;4.12;2.50;;;;;;;0.42;79.86;98527.96;1763835;79;21510;-76
2021/12/20 04:35:19;;;;;;;6.78;2.80;;;;;;;0.41;79.85;98529.73;1769761;79;21376;-73
2021/12/20 04:37:48;;;;;;;4.40;2.15;;;;;;;0.41;79.79;98533.62;1771702;79;21090;-74
2021/12/20 04:40:21;;;;;;;4.35;2.50;;;;;;;0.41;79.73;98532.80;1773986;79;20999;-74
2021/12/20 04:42:55;;;;;;;7.47;3.22;;;;;;;0.40;79.66;98535.03;1775344;79;22578;-74
2021/12/20 04:45:23;;;;;;;6.25;3.27;;;;;;;0.41;79.67;98544.48;1775650;79;20935;-73
2021/12/20 04:47:50;;;;;;;19.70;10.18;;;;;;;0.41;79.64;98544.02;1767078;79;20951;-73
2021/12/20 04:50:17;;;;;;;6.90;3.22;;;;;;;0.42;79.65;98545.67;1773551;79;21403;-73
2021/12/20 04:52:44;;;;;;;7.87;4.58;;;;;;;0.43;79.58;98544.73;1764948;80;21043;-74
2021/12/20 04:55:12;;;;;;;6.03;3.30;;;;;;;0.45;79.56;98548.52;1749391;80;22195;-75
2021/12/20 04:57:40;;;;;;;8.20;5.00;;;;;;;0.45;79.50;98551.95;1749928;80;20952;-76
2021/12/20 05:00:13;;;;;;;6.53;3.85;;;;;;;0.43;79.48;98551.23;1756198;80;21000;-75
2021/12/20 05:02:39;;;;;;;8.68;5.20;;;;;;;0.44;79.48;98549.45;1750873;80;21003;-76
2021/12/20 05:05:09;;;;;;;19.32;9.50;;;;;;;0.42;79.47;98556.06;1745369;80;21012;-73
2021/12/20 05:07:38;;;;;;;9.75;5.28;;;;;;;0.43;79.45;98560.78;1728446;81;21840;-75
2021/12/20 05:10:12;;;;;;;6.70;3.72;;;;;;;0.44;79.46;98563.27;1754085;80;21063;-75
2021/12/20 05:12:40;;;;;;;5.12;3.20;;;;;;;0.45;79.42;98559.73;1758615;80;21320;-76
2021/12/20 05:15:07;;;;;;;6.03;2.92;;;;;;;0.45;79.38;98566.70;1755370;80;21070;-75
2021/12/20 05:17:36;;;;;;;3.75;1.90;;;;;;;0.43;79.22;98569.41;1757773;80;21027;-76
2021/12/20 05:20:05;;;;;;;7.08;4.05;;;;;;;0.43;79.17;98570.70;1757246;80;23008;-77
2021/12/20 05:22:33;;;;;;;15.40;7.95;;;;;;;0.43;79.15;98572.00;1759478;80;20994;-78
2021/12/20 05:25:01;;;;;;;8.98;4.95;;;;;;;0.43;79.13;98573.30;1755504;80;20968;-78
2021/12/20 05:27:28;;;;;;;13.53;6.62;;;;;;;0.42;79.03;98577.30;1756001;80;21039;-82
2021/12/20 05:29:54;;;;;;;9.68;4.92;;;;;;;0.43;79.02;98578.97;1755698;80;21438;-78
2021/12/20 05:32:20;;;;;;;19.27;10.45;;;;;;;0.41;78.91;98575.64;1750566;80;21852;-83
2021/12/20 05:34:47;;;;;;;16.67;9.30;;;;;;;0.42;78.95;98579.91;1754954;80;21024;-81
2021/12/20 05:37:16;;;;;;;11.83;6.42;;;;;;;0.43;78.97;98577.67;1756640;80;21020;-78
2021/12/20 05:39:43;;;;;;;5.55;3.50;;;;;;;0.42;78.91;98582.03;1761872;80;21022;-81
2021/12/20 05:42:09;;;;;;;11.45;4.60;;;;;;;0.42;78.88;98585.93;1755527;79;20975;-74
2021/12/20 05:44:36;;;;;;;8.38;3.10;;;;;;;0.45;78.87;98592.67;1759378;80;22403;-75
2021/12/20 05:47:05;;;;;;;3.75;2.05;;;;;;;0.44;78.83;98591.02;1756715;80;20941;-74
2021/12/20 05:49:31;;;;;;;7.30;3.90;;;;;;;0.44;78.83;98592.31;1754829;80;20961;-73
2021/12/20 05:51:59;;;;;;;6.35;3.12;;;;;;;0.44;78.79;98602.23;1748734;80;21327;-77
2021/12/20 05:54:26;;;;;;;4.50;2.70;;;;;;;0.45;78.78;98604.36;1741915;80;21068;-73
2021/12/20 05:56:53;;;;;;;3.37;1.82;;;;;;;0.44;78.74;98603.53;1738779;80;21889;-74
2021/12/20 05:59:19;;;;;;;3.72;1.90;;;;;;;0.46;78.70;98611.22;1750126;80;20982;-74
2021/12/20 06:01:46;;;;;;;3.20;1.50;;;;;;;0.45;78.68;98614.28;1750446;80;21064;-73
2021/12/20 06:04:12;;;;;;;1.95;1.30;;;;;;;0.48;78.67;98618.00;1741936;80;21130;-71
2021/12/20 06:06:40;;;;;;;12.75;7.87;;;;;;;0.48;78.67;98612.80;1743325;80;21367;-73
2021/12/20 06:09:06;;;;;;;10.55;6.17;;;;;;;0.50;78.64;98623.92;1749354;81;22677;-74
2021/12/20 06:11:33;;;;;;;25.25;13.55;;;;;;;0.49;78.53;98617.06;1747442;81;21156;-74
2021/12/20 06:13:59;;;;;;;11.70;6.80;;;;;;;0.49;78.51;98622.26;1753694;81;21067;-71
2021/12/20 06:16:27;;;;;;;8.40;4.80;;;;;;;0.50;78.40;98627.81;1743364;80;21061;-74
2021/12/20 06:18:54;;;;;;;9.98;5.53;;;;;;;0.49;78.34;98625.33;1750609;80;22454;-73
2021/12/20 06:21:20;;;;;;;5.30;2.67;;;;;;;0.51;78.38;98635.14;1750693;81;22734;-73
2021/12/20 06:23:46;;;;;;;3.20;1.90;;;;;;;0.52;78.27;98638.09;1742819;81;21084;-72
2021/12/20 06:26:14;;;;;;;15.25;8.73;;;;;;;0.53;78.24;98630.67;1748479;80;21047;-74
2021/12/20 06:28:40;;;;;;;41.25;21.40;;;;;;;0.54;78.17;98631.86;1760333;81;21095;-74
2021/12/20 06:31:07;;;;;;;6.30;3.60;;;;;;;0.53;78.09;98635.39;1749611;80;20988;-73
2021/12/20 06:33:33;;;;;;;9.10;4.92;;;;;;;0.53;78.03;98635.39;1714332;82;22428;-74
2021/12/20 06:35:59;;;;;;;10.85;5.58;;;;;;;0.54;78.01;98629.73;1692921;83;20952;-73
2021/12/20 06:38:26;;;;;;;8.25;4.78;;;;;;;0.55;77.91;98634.82;1709014;82;21008;-73
2021/12/20 06:40:54;;;;;;;5.37;2.90;;;;;;;0.55;77.76;98635.28;1710189;82;21075;-73
2021/12/20 06:43:20;;;;;;;13.48;6.65;;;;;;;0.54;77.65;98634.45;1721817;82;21387;-74
2021/12/20 06:45:47;;;;;;;7.72;5.15;;;;;;;0.55;77.58;98633.52;1746881;81;21773;-78
2021/12/20 06:48:14;;;;;;;9.13;6.20;;;;;;;0.58;77.54;98639.00;1749240;80;21028;-82
2021/12/20 06:50:41;;;;;;;8.78;5.60;;;;;;;0.60;77.42;98640.20;1747662;81;20977;-81
2021/12/20 06:53:07;;;;;;;10.95;6.83;;;;;;;0.61;77.39;98637.49;1734085;80;21042;-76
2021/12/20 06:55:35;;;;;;;6.62;4.50;;;;;;;0.63;77.36;98636.09;1780212;79;21445;-79
2021/12/20 06:58:03;;;;;;;6.62;4.22;;;;;;;0.63;77.25;98638.69;1771686;80;21866;-74
2021/12/20 07:00:29;;;;;;;4.37;2.75;;;;;;;0.63;77.16;98645.18;1774326;79;21392;-78
2021/12/20 07:02:56;;;;;;;9.75;5.35;;;;;;;0.64;77.03;98652.86;1779398;79;21035;-75
2021/12/20 07:05:23;;;;;;;18.70;8.08;;;;;;;0.63;76.93;98649.91;1776692;79;21035;-78
2021/12/20 07:07:50;;;;;;;12.85;6.70;;;;;;;0.65;76.97;98651.09;1775128;80;20933;-76
2021/12/20 07:10:17;;;;;;;6.12;3.60;;;;;;;0.68;76.93;98661.31;1782252;79;21787;-71
2021/12/20 07:12:43;;;;;;;8.93;5.83;;;;;;;0.71;76.90;98653.30;1763220;80;20996;-74
2021/12/20 07:15:12;;;;;;;3.77;2.55;;;;;;;0.73;76.83;98657.92;1776412;80;20985;-72
2021/12/20 07:17:39;;;;;;;4.75;2.85;;;;;;;0.75;76.73;98659.95;1786175;79;20987;-73
2021/12/20 07:20:07;;;;;;;3.00;2.25;;;;;;;0.79;76.64;98664.02;1764398;80;21051;-75
2021/12/20 07:22:34;;;;;;;4.60;2.40;;;;;;;0.80;76.55;98664.38;1759204;80;21828;-74
2021/12/20 07:25:01;;;;;;;2.60;1.60;;;;;;;0.83;76.52;98658.50;1784894;79;21079;-73
2021/12/20 07:27:28;;;;;;;3.33;1.60;;;;;;;0.84;76.39;98652.84;1781546;79;20987;-72
2021/12/20 07:29:55;;;;;;;3.77;2.02;;;;;;;0.87;76.38;98663.05;1774643;79;20976;-71
2021/12/20 07:32:21;;;;;;;4.53;2.33;;;;;;;0.89;76.26;98659.87;1779646;79;20984;-70
2021/12/20 07:34:48;;;;;;;4.80;2.50;;;;;;;0.90;76.11;98669.33;1780328;80;21821;-71
2021/12/20 07:37:14;;;;;;;5.95;3.20;;;;;;;0.91;76.12;98669.69;1772512;80;21479;-76
2021/12/20 07:39:42;;;;;;;4.58;2.20;;;;;;;0.95;76.12;98670.30;1769676;80;21103;-78
2021/12/20 07:42:09;;;;;;;32.23;15.98;;;;;;;0.96;76.07;98665.00;1773985;80;21569;-76
2021/12/20 07:44:36;;;;;;;5.37;3.10;;;;;;;0.95;75.83;98660.73;1731140;80;21016;-80
2021/12/20 07:47:03;;;;;;;6.75;3.67;;;;;;;0.94;75.68;98659.08;1768922;80;21698;-75
2021/12/20 07:49:30;;;;;;;5.72;3.22;;;;;;;0.94;75.65;98677.28;1757725;80;21087;-77
2021/12/20 07:51:57;;;;;;;5.80;3.35;;;;;;;0.95;75.54;98680.70;1776584;79;21051;-75
2021/12/20 07:54:23;;;;;;;21.87;11.40;;;;;;;0.95;75.45;98684.13;1790770;79;21098;-72
2021/12/20 07:56:49;;;;;;;14.87;8.63;;;;;;;0.97;75.35;98689.26;1783693;79;21036;-73
2021/12/20 07:59:16;;;;;;;6.97;3.70;;;;;;;0.98;75.20;98691.75;1762805;80;21824;-72
2021/12/20 08:01:42;;;;;;;15.00;8.68;;;;;;;1.01;75.14;98695.44;1779099;79;21470;-72
2021/12/20 08:04:10;;;;;;;5.12;3.05;;;;;;;1.02;75.08;98698.39;1788471;79;21078;-71
2021/12/20 08:06:37;;;;;;;23.90;12.75;;;;;;;1.05;75.05;98693.45;1794138;79;21061;-69
2021/12/20 08:09:04;;;;;;;12.75;7.30;;;;;;;1.07;74.98;98694.20;1780852;79;21027;-73
2021/12/20 08:11:30;;;;;;;5.90;3.33;;;;;;;1.09;74.90;98689.73;1783688;79;21794;-70
2021/12/20 08:13:57;;;;;;;15.88;7.78;;;;;;;1.14;74.86;98694.96;1784623;79;21011;-71
2021/12/20 08:16:24;;;;;;;31.82;15.20;;;;;;;1.15;74.66;98695.32;1787008;79;20988;-70
2021/12/20 08:18:50;;;;;;;9.78;4.17;;;;;;;1.18;74.61;98700.81;1792964;79;21001;-70
2021/12/20 08:21:17;;;;;;;33.28;14.83;;;;;;;1.21;74.43;98701.89;1776677;79;21073;-70
2021/12/20 08:23:44;;;;;;;11.43;6.47;;;;;;;1.24;74.42;98707.34;1783096;79;21894;-70
2021/12/20 08:26:10;;;;;;;9.33;4.28;;;;;;;1.26;73.97;98702.89;1775111;78;21059;-70
2021/12/20 08:28:37;;;;;;;5.75;2.42;;;;;;;1.26;73.92;98702.42;1771414;80;21059;-71
2021/12/20 08:31:07;;;;;;;4.45;2.58;;;;;;;1.27;73.73;98701.95;1767437;80;21051;-72
2021/12/20 08:33:34;;;;;;;89.20;46.20;;;;;;;1.28;73.47;98699.72;1791527;79;21612;-72
2021/12/20 08:36:03;;;;;;;50.92;25.60;;;;;;;1.29;73.52;98705.28;1791859;79;22410;-70
2021/12/20 08:38:30;;;;;;;59.42;31.45;;;;;;;1.29;73.21;98702.20;1790432;79;21028;-73
2021/12/20 08:40:56;;;;;;;34.53;17.50;;;;;;;1.30;73.16;98705.17;1779604;79;21121;-72
2021/12/20 08:43:31;;;;;;;23.85;13.75;;;;;;;1.32;73.06;98705.06;1780593;79;21047;-71
2021/12/20 08:46:02;;;;;;;7.25;5.37;;;;;;;1.32;72.60;98697.26;1782792;79;21076;-73
2021/12/20 08:48:30;;;;;;;9.70;6.50;;;;;;;1.27;72.28;98703.25;1776731;79;21846;-71
2021/12/20 08:50:58;;;;;;;7.55;4.97;;;;;;;1.30;72.38;98707.77;1777437;79;20924;-72
2021/12/20 08:53:25;;;;;;;7.55;5.22;;;;;;;1.34;72.36;98703.18;1763416;79;21009;-71
2021/12/20 08:56:11;;;;;;;3.90;2.30;;;;;;;1.41;72.34;98710.94;1753141;80;20905;-70
2021/12/20 08:58:37;;;;;;;5.47;3.77;;;;;;;1.44;72.15;98701.61;1744039;81;21017;-73
2021/12/20 09:01:04;;;;;;;10.55;6.05;;;;;;;1.44;71.82;98706.81;1750054;81;22353;-70
2021/12/20 09:03:30;;;;;;;12.93;8.60;;;;;;;1.45;71.84;98705.91;1750735;81;21078;-71
2021/12/20 09:05:57;;;;;;;7.25;3.20;;;;;;;1.47;71.54;98705.33;1744227;81;21491;-73
2021/12/20 09:08:42;;;;;;;4.83;3.30;;;;;;;1.49;71.51;98701.31;1752797;80;20973;-73
2021/12/20 09:11:10;;;;;;;4.72;3.10;;;;;;;1.53;70.72;98713.16;1750440;81;21022;-74
2021/12/20 09:13:38;;;;;;;5.35;2.80;;;;;;;1.56;70.69;98707.77;1749160;80;21786;-72
2021/12/20 09:16:05;;;;;;;5.00;3.40;;;;;;;1.58;70.45;98705.41;1750525;80;21039;-73
2021/12/20 09:18:32;;;;;;;11.03;4.65;;;;;;;1.61;70.46;98705.19;1755538;80;21574;-74
2021/12/20 09:20:58;;;;;;;6.87;4.03;;;;;;;1.68;70.37;98697.80;1748346;80;21049;-74
2021/12/20 09:23:29;;;;;;;2.55;1.60;;;;;;;1.74;70.04;98699.98;1741227;80;21004;-72
2021/12/20 09:25:53;;;;;;;4.30;2.77;;;;;;;1.77;69.65;98705.44;1755012;81;21837;-76
2021/12/20 09:28:19;;;;;;;5.37;3.77;;;;;;;1.81;69.42;98701.66;1747698;80;20992;-77
2021/12/20 09:30:46;;;;;;;3.65;2.80;;;;;;;1.86;69.51;98695.20;1744773;81;21072;-76
2021/12/20 09:33:13;;;;;;;11.33;6.72;;;;;;;1.91;69.43;98703.98;1745251;81;21526;-75
2021/12/20 09:35:40;;;;;;;13.83;6.72;;;;;;;1.91;69.25;98707.42;1759499;81;21102;-77
2021/12/20 09:38:10;;;;;;;5.67;3.58;;;;;;;1.88;68.62;98703.73;1740769;81;21823;-75
2021/12/20 09:40:40;;;;;;;6.25;4.40;;;;;;;1.84;68.10;98706.68;1741510;80;21023;-74
2021/12/20 09:43:11;;;;;;;6.62;4.80;;;;;;;1.79;68.16;98702.25;1746222;80;21019;-77
2021/12/20 09:45:40;;;;;;;3.00;2.33;;;;;;;1.76;68.39;98698.57;1758857;80;21000;-74
2021/12/20 09:48:07;;;;;;;4.62;2.85;;;;;;;1.76;68.51;98703.78;1747145;80;21015;-73
2021/12/20 09:50:33;;;;;;;4.87;2.65;;;;;;;1.71;68.01;98711.41;1741003;80;21905;-77
2021/12/20 09:53:04;;;;;;;4.62;1.87;;;;;;;1.67;68.16;98720.39;1753564;80;21515;-76
2021/12/20 09:55:28;;;;;;;4.45;2.20;;;;;;;1.64;68.25;98716.70;1738455;80;21073;-75
2021/12/20 09:57:54;;;;;;;6.22;3.52;;;;;;;1.64;68.53;98713.24;1718264;81;21024;-75
2021/12/20 10:00:21;;;;;;;7.47;3.30;;;;;;;1.60;68.46;98720.44;1696429;83;21103;-76
2021/12/20 10:02:48;;;;;;;29.92;13.65;;;;;;;1.56;68.60;98715.10;1720564;81;22253;-74
2021/12/20 10:05:15;;;;;;;7.08;3.75;;;;;;;1.55;68.74;98713.44;1723336;81;21039;-76
2021/12/20 10:07:43;;;;;;;13.95;7.15;;;;;;;1.55;68.92;98708.70;1719576;81;21060;-78
2021/12/20 10:10:10;;;;;;;15.68;7.90;;;;;;;1.56;69.13;98712.50;1725789;82;21039;-74
2021/12/20 10:12:51;;;;;;;12.98;4.83;;;;;;;1.58;69.30;98709.78;1724236;82;21003;-73
2021/12/20 10:15:17;;;;;;;27.45;14.28;;;;;;;1.63;69.50;98713.72;1722659;81;21824;-76
2021/12/20 10:17:58;;;;;;;8.53;4.22;;;;;;;1.66;69.57;98713.52;1722755;81;21028;-74
2021/12/20 10:20:27;;;;;;;13.15;7.70;;;;;;;1.68;69.67;98703.83;1719563;81;21071;-72
2021/12/20 10:23:01;;;;;;;4.17;2.40;;;;;;;1.69;69.46;98717.67;1671713;81;40091;-74
2021/12/20 10:25:30;;;;;;;6.62;5.03;;;;;;;1.68;69.41;98713.41;1729757;81;21415;-73
2021/12/20 10:28:10;;;;;;;5.30;2.30;;;;;;;1.69;69.31;98715.07;1722486;81;21811;-73
2021/12/20 10:30:46;;;;;;;4.40;2.47;;;;;;;1.70;69.42;98720.64;1721703;81;21413;-74
2021/12/20 10:33:18;;;;;;;4.83;2.42;;;;;;;1.68;69.49;98716.02;1670864;84;21442;-74
2021/12/20 10:35:53;;;;;;;5.60;3.50;;;;;;;1.66;69.70;98716.12;1717425;81;21024;-73
2021/12/20 10:38:27;;;;;;;8.50;4.40;;;;;;;1.65;69.79;98718.38;1721490;81;21000;-73
2021/12/20 10:40:59;;;;;;;5.03;3.55;;;;;;;1.68;70.06;98723.82;1720491;81;22608;-74
2021/12/20 10:43:50;;;;;;;3.27;2.25;;;;;;;1.72;70.17;98723.48;1724156;81;20996;-73
2021/12/20 10:46:33;;;;;;;4.05;2.25;;;;;;;1.77;70.13;98715.84;1725864;81;21402;-75
2021/12/20 10:49:03;;;;;;;3.50;2.00;;;;;;;1.82;70.29;98715.88;1733597;81;21056;-74
2021/12/20 10:51:40;;;;;;;4.00;2.20;;;;;;;1.88;70.30;98713.32;1724634;81;21063;-74
2021/12/20 10:54:11;;;;;;;4.12;1.98;;;;;;;1.88;70.24;98719.83;1720741;81;22227;-74
2021/12/20 10:56:48;;;;;;;3.00;1.95;;;;;;;1.90;70.29;98712.27;1697688;82;21009;-74
2021/12/20 10:59:15;;;;;;;3.20;1.65;;;;;;;1.94;70.08;98712.90;1709741;81;21131;-74
2021/12/20 11:04:35;;;;;;;3.25;1.80;;;;;;;1.96;70.03;98711.02;1718940;82;21583;-74
2021/12/20 11:09:41;;;;;;;8.23;4.60;;;;;;;2.04;70.05;98715.69;1721235;81;21359;-73
2021/12/20 11:12:21;;;;;;;8.33;5.08;;;;;;;2.05;69.95;98722.55;1730569;81;21039;-74
2021/12/20 11:14:51;;;;;;;3.00;1.95;;;;;;;2.05;69.86;98733.80;1720320;81;21048;-72
2021/12/20 11:17:20;;;;;;;1.80;1.25;;;;;;;2.02;69.94;98732.70;1699664;81;21078;-73
2021/12/20 11:19:56;;;;;;;1.10;0.90;;;;;;;1.94;70.12;98733.26;1713784;81;20941;-72
2021/12/20 11:22:30;;;;;;;1.62;1.00;;;;;;;1.82;70.17;98735.86;1709828;82;21021;-76
2021/12/20 11:25:03;;;;;;;1.80;0.90;;;;;;;1.69;70.50;98732.82;1720981;81;21033;-81
2021/12/20 11:27:42;;;;;;;5.22;3.62;;;;;;;1.55;70.70;98735.55;1721501;81;21016;-79
2021/12/20 11:30:14;;;;;;;14.38;9.75;;;;;;;1.45;71.06;98741.02;1718195;81;21009;-80
2021/12/20 11:32:41;;;;;;;15.28;9.75;;;;;;;1.35;71.35;98736.91;1698093;82;21853;-79
2021/12/20 11:35:08;;;;;;;2.30;1.40;;;;;;;1.32;71.66;98742.77;1720238;81;21055;-77
2021/12/20 11:37:35;;;;;;;3.55;2.50;;;;;;;1.24;71.65;98752.86;1730259;82;20996;-77
2021/12/20 11:40:07;;;;;;;2.47;1.85;;;;;;;1.18;71.89;98762.39;1719941;81;21435;-79
2021/12/20 11:42:34;;;;;;;3.52;2.10;;;;;;;1.13;72.00;98762.20;1720270;82;21730;-76
2021/12/20 11:45:04;;;;;;;8.58;7.55;;;;;;;1.10;72.19;98771.52;1717806;81;21883;-78
2021/12/20 11:47:36;;;;;;;5.60;5.05;;;;;;;1.04;72.58;98771.91;1720568;81;21039;-79
2021/12/20 11:50:11;;;;;;;3.45;3.15;;;;;;;1.01;72.77;98777.33;1722570;81;21039;-79
2021/12/20 11:52:40;;;;;;;3.00;2.40;;;;;;;1.00;72.92;98775.66;1718414;81;21067;-76
2021/12/20 11:55:28;;;;;;;2.98;2.40;;;;;;;0.98;73.31;98789.23;1712394;81;21473;-77
2021/12/20 11:58:02;;;;;;;2.52;2.33;;;;;;;0.92;73.47;98794.82;1699613;83;21838;-76